ETNG

Geilenkirchen Airport

Germany
METAR ETNG 152150Z 21003KT CAVOK 18/14 Q1019
Observed Flight Rules
Aug-15 @ 21:50 UTC (38 minutes ago) Visual Flight Rules
Wind Visibility Clouds
210° at 3 knots 10,000+ meters
  • Clear skies
Temperatures Readings
Current 18°C / 64°F
Dewpoint 14°C / 57°F
Humidity 78%
Altimeter 30.09" Hg
Pressure 1019 hPa
Elevation 98
METAR ETNG 152150Z 21003KT CAVOK 18/14 Q1019
Observed Flight Rules
Aug-15 @ 21:50 UTC
(38 minutes ago)
VFR
Wind Visibility
210° at 3 knots 10,000+ meters
Clouds
  • Clear skies
Temperature Dewpoint
18°C / 64°F 14°C / 57°F
Humidity Altimeter Pressure
78% 30.09" Hg 1019 hPa